createdAt,value
2017-09-04T00:00:51.864Z,14.40
2017-09-04T00:03:18.154Z,14.60
2017-09-04T00:05:44.473Z,14.60
2017-09-04T00:08:10.823Z,14.60
2017-09-04T00:10:37.110Z,14.60
2017-09-04T00:13:03.420Z,14.60
2017-09-04T00:15:29.754Z,14.60
2017-09-04T00:20:28.969Z,14.60
2017-09-04T00:22:55.257Z,14.60
2017-09-04T00:25:21.606Z,14.60
2017-09-04T00:27:48.017Z,14.60
2017-09-04T00:30:14.323Z,14.60
2017-09-04T00:32:40.612Z,14.50
2017-09-04T00:35:06.938Z,14.50
2017-09-04T00:37:33.242Z,14.50
2017-09-04T00:39:59.539Z,14.50
2017-09-04T00:42:26.003Z,14.60
2017-09-04T00:44:52.309Z,14.60
2017-09-04T00:47:18.617Z,14.60
2017-09-04T00:49:44.907Z,14.70
2017-09-04T00:52:11.205Z,14.70
2017-09-04T00:54:37.582Z,14.60
2017-09-04T00:57:03.894Z,14.60
2017-09-04T00:59:30.170Z,14.60
2017-09-04T01:01:56.468Z,14.50
2017-09-04T01:04:22.762Z,14.50
2017-09-04T01:06:49.160Z,14.50
2017-09-04T01:09:15.456Z,14.50
2017-09-04T01:11:41.743Z,14.30
2017-09-04T01:14:08.174Z,14.40
2017-09-04T01:16:34.444Z,14.40
2017-09-04T01:19:00.787Z,14.40
2017-09-04T01:21:27.130Z,14.40
2017-09-04T01:23:53.414Z,14.40
2017-09-04T01:26:19.725Z,14.40
2017-09-04T01:28:46.108Z,14.40
2017-09-04T01:31:12.483Z,14.50
2017-09-04T01:33:38.871Z,14.50
2017-09-04T01:36:05.169Z,14.50
2017-09-04T01:38:31.463Z,14.40
2017-09-04T01:40:57.735Z,14.40
2017-09-04T01:43:24.123Z,14.10
2017-09-04T01:45:50.434Z,14.40
2017-09-04T01:48:16.698Z,14.30
2017-09-04T01:50:42.973Z,14.30
2017-09-04T01:53:09.234Z,14.30
2017-09-04T01:55:35.788Z,14.30
2017-09-04T01:58:02.055Z,14.30
2017-09-04T02:00:28.317Z,14.30
2017-09-04T02:02:54.632Z,14.30
2017-09-04T02:05:20.910Z,14.30
2017-09-04T02:07:47.162Z,14.20
2017-09-04T02:10:13.445Z,14.20
2017-09-04T02:12:39.722Z,14.20
2017-09-04T02:15:05.970Z,14.20
2017-09-04T02:17:32.214Z,14.10
2017-09-04T02:19:58.461Z,14.10
2017-09-04T02:22:24.733Z,14.10
2017-09-04T02:24:50.990Z,14.10
2017-09-04T02:27:17.245Z,14.00
2017-09-04T02:29:43.594Z,14.00
2017-09-04T02:32:09.878Z,14.00
2017-09-04T02:34:36.287Z,13.80
2017-09-04T02:37:02.561Z,13.80
2017-09-04T02:39:28.821Z,13.80
2017-09-04T02:41:55.061Z,13.80
2017-09-04T02:44:21.326Z,13.80
2017-09-04T02:46:47.781Z,13.90
2017-09-04T02:49:14.250Z,13.80
2017-09-04T02:51:40.726Z,13.80
2017-09-04T02:54:07.286Z,13.80
2017-09-04T02:56:33.805Z,13.70
2017-09-04T02:59:00.257Z,13.60
2017-09-04T03:01:26.719Z,13.60
2017-09-04T03:03:53.229Z,13.60
2017-09-04T03:06:19.709Z,13.60
2017-09-04T03:08:46.183Z,13.50
2017-09-04T03:11:12.737Z,13.60
2017-09-04T03:13:39.221Z,13.60
2017-09-04T03:16:05.707Z,13.50
2017-09-04T03:18:32.273Z,13.50
2017-09-04T03:20:58.882Z,13.60
2017-09-04T03:23:25.450Z,13.50
2017-09-04T03:25:51.953Z,13.50
2017-09-04T03:28:19.305Z,13.50
2017-09-04T03:30:45.826Z,13.50
2017-09-04T03:33:12.401Z,13.40
2017-09-04T03:35:38.927Z,13.50
2017-09-04T03:38:05.435Z,13.50
2017-09-04T03:40:31.970Z,13.50
2017-09-04T03:42:58.514Z,13.50
2017-09-04T03:45:25.170Z,13.60
2017-09-04T03:47:51.697Z,13.60
2017-09-04T03:50:18.241Z,13.60
2017-09-04T03:52:44.758Z,13.60
2017-09-04T03:55:11.301Z,13.60
2017-09-04T03:57:37.810Z,13.60
2017-09-04T04:00:04.368Z,13.60
2017-09-04T04:02:30.869Z,13.60
2017-09-04T04:04:57.377Z,13.60
2017-09-04T04:07:23.872Z,13.60
2017-09-04T04:09:50.366Z,13.60
2017-09-04T04:12:16.858Z,13.50
2017-09-04T04:14:43.341Z,13.50
2017-09-04T04:17:09.813Z,13.50
2017-09-04T04:19:36.293Z,13.50
2017-09-04T04:22:02.824Z,13.20
2017-09-04T04:24:29.348Z,13.40
2017-09-04T04:26:55.913Z,13.40
2017-09-04T04:29:22.392Z,13.40
2017-09-04T04:31:48.882Z,13.30
2017-09-04T04:34:15.399Z,13.40
2017-09-04T04:36:41.906Z,13.40
2017-09-04T04:39:08.458Z,13.40
2017-09-04T04:41:34.929Z,13.40
2017-09-04T04:44:01.400Z,13.20
2017-09-04T04:46:27.838Z,13.30
2017-09-04T04:48:54.278Z,13.30
2017-09-04T04:51:21.571Z,13.30
2017-09-04T04:53:48.068Z,13.30
2017-09-04T04:56:15.002Z,13.30
2017-09-04T04:58:41.538Z,13.30
2017-09-04T05:01:08.027Z,13.30
2017-09-04T05:03:34.485Z,13.30
2017-09-04T05:06:01.018Z,13.30
2017-09-04T05:08:27.486Z,13.30
2017-09-04T05:10:53.901Z,13.30
2017-09-04T05:13:20.373Z,13.30
2017-09-04T05:15:46.852Z,13.40
2017-09-04T05:18:13.511Z,13.30
2017-09-04T05:20:40.074Z,13.00
2017-09-04T05:23:06.602Z,12.90
2017-09-04T05:25:33.113Z,13.20
2017-09-04T05:27:59.577Z,12.80
2017-09-04T05:30:26.294Z,13.40
2017-09-04T05:32:52.949Z,13.50
2017-09-04T05:35:19.494Z,13.50
2017-09-04T05:37:46.138Z,13.60
2017-09-04T05:40:12.690Z,13.70
2017-09-04T05:42:39.180Z,13.70
2017-09-04T05:45:05.683Z,13.70
2017-09-04T05:47:32.241Z,13.70
2017-09-04T05:49:58.726Z,13.70
2017-09-04T05:52:25.242Z,13.30
2017-09-04T05:54:51.698Z,13.80
2017-09-04T05:57:18.172Z,14.00
2017-09-04T05:59:44.702Z,14.10
2017-09-04T06:02:11.181Z,14.10
2017-09-04T06:04:37.666Z,14.10
2017-09-04T06:07:04.217Z,14.20
2017-09-04T06:09:30.783Z,14.00
2017-09-04T06:11:57.229Z,14.10
2017-09-04T06:14:23.734Z,14.30
2017-09-04T06:16:50.233Z,14.40
2017-09-04T06:19:16.770Z,14.40
2017-09-04T06:21:43.299Z,14.60
2017-09-04T06:24:09.786Z,15.00
2017-09-04T06:26:36.238Z,15.40
2017-09-04T06:29:02.800Z,15.80
2017-09-04T06:31:29.044Z,16.50
2017-09-04T06:33:55.321Z,16.90
2017-09-04T06:36:22.127Z,17.60
2017-09-04T06:38:48.408Z,18.30
2017-09-04T06:41:14.756Z,18.50
2017-09-04T06:43:41.046Z,18.80
2017-09-04T06:46:07.354Z,19.10
2017-09-04T06:48:33.603Z,18.80
2017-09-04T06:50:59.914Z,18.60
2017-09-04T06:53:26.198Z,18.70
2017-09-04T06:55:52.521Z,18.70
2017-09-04T06:58:18.826Z,19.50
2017-09-04T07:00:45.123Z,19.40
2017-09-04T07:03:11.478Z,19.30
2017-09-04T07:05:37.770Z,19.00
2017-09-04T07:08:04.075Z,18.80
2017-09-04T07:10:30.339Z,18.80
2017-09-04T07:12:56.612Z,18.70
2017-09-04T07:15:22.889Z,18.80
2017-09-04T07:17:49.176Z,18.70
2017-09-04T07:20:15.460Z,18.90
2017-09-04T07:22:41.778Z,19.00
2017-09-04T07:25:08.083Z,19.60
2017-09-04T07:27:34.460Z,19.90
2017-09-04T07:30:00.748Z,19.80
2017-09-04T07:32:27.088Z,20.60
2017-09-04T07:34:53.382Z,20.40
2017-09-04T07:37:19.673Z,20.60
2017-09-04T07:39:46.070Z,21.20
2017-09-04T07:42:12.343Z,21.90
2017-09-04T07:44:38.646Z,22.30
2017-09-04T07:47:04.932Z,22.60
2017-09-04T07:49:31.251Z,22.90
2017-09-04T07:51:57.532Z,23.10
2017-09-04T07:54:23.791Z,22.70
2017-09-04T07:56:50.056Z,23.10
2017-09-04T07:59:16.339Z,23.20
2017-09-04T08:01:42.611Z,23.20
2017-09-04T08:04:08.863Z,23.20
2017-09-04T08:06:35.132Z,23.30
2017-09-04T08:09:01.603Z,22.90
2017-09-04T08:11:28.052Z,22.50
2017-09-04T08:13:54.622Z,22.70
2017-09-04T08:16:21.134Z,22.90
2017-09-04T08:18:47.618Z,22.90
2017-09-04T08:21:14.221Z,23.10
2017-09-04T08:23:40.716Z,23.20
2017-09-04T08:26:07.284Z,23.40
2017-09-04T08:28:34.590Z,23.90
2017-09-04T08:31:01.100Z,23.90
2017-09-04T08:33:27.577Z,24.10
2017-09-04T08:35:54.021Z,24.40
2017-09-04T08:38:20.497Z,24.00
2017-09-04T08:40:46.983Z,23.70
2017-09-04T08:43:13.471Z,23.80
2017-09-04T08:45:39.946Z,23.80
2017-09-04T08:48:06.602Z,23.80
2017-09-04T08:50:33.089Z,23.80
2017-09-04T08:52:59.561Z,23.80
2017-09-04T08:55:26.052Z,23.70
2017-09-04T08:57:52.526Z,23.70
2017-09-04T09:00:19.041Z,23.60
2017-09-04T09:02:45.516Z,23.60
2017-09-04T09:05:12.046Z,23.60
2017-09-04T09:07:38.550Z,23.50
2017-09-04T09:10:05.008Z,23.30
2017-09-04T09:12:31.481Z,23.30
2017-09-04T09:14:57.974Z,23.40
2017-09-04T09:17:24.440Z,23.40
2017-09-04T09:19:50.911Z,23.30
2017-09-04T09:22:17.402Z,23.70
2017-09-04T09:24:43.894Z,23.90
2017-09-04T09:27:10.470Z,23.80
2017-09-04T09:29:37.011Z,24.00
2017-09-04T09:32:03.529Z,24.20
2017-09-04T09:34:30.012Z,24.20
2017-09-04T09:36:56.470Z,24.10
2017-09-04T09:39:22.982Z,23.70
2017-09-04T09:41:49.485Z,24.00
2017-09-04T09:44:15.955Z,24.00
2017-09-04T09:46:42.410Z,24.00
2017-09-04T09:49:08.874Z,23.90
2017-09-04T09:51:35.391Z,24.10
2017-09-04T09:54:01.959Z,24.40
2017-09-04T09:56:28.462Z,24.50
2017-09-04T09:58:54.957Z,24.70
2017-09-04T10:01:21.457Z,24.70
2017-09-04T10:03:47.955Z,24.90
2017-09-04T10:06:14.459Z,25.00
2017-09-04T10:08:41.012Z,25.30
2017-09-04T10:11:07.504Z,24.70
2017-09-04T10:13:34.040Z,24.50
2017-09-04T10:16:00.557Z,24.90
2017-09-04T10:18:27.087Z,25.20
2017-09-04T10:20:53.690Z,25.50
2017-09-04T10:23:20.202Z,25.30
2017-09-04T10:25:46.821Z,25.70
2017-09-04T10:28:13.396Z,25.50
2017-09-04T10:30:39.921Z,25.70
2017-09-04T10:33:06.454Z,25.80
2017-09-04T10:35:33.013Z,25.80
2017-09-04T10:37:59.586Z,25.90
2017-09-04T10:40:26.088Z,26.10
2017-09-04T10:42:52.629Z,26.10
2017-09-04T10:45:19.185Z,26.30
2017-09-04T10:47:45.668Z,26.20
2017-09-04T10:50:12.157Z,26.20
2017-09-04T10:52:38.693Z,26.10
2017-09-04T10:55:05.171Z,25.90
2017-09-04T10:57:31.646Z,26.00
2017-09-04T10:59:58.167Z,25.70
2017-09-04T11:02:24.670Z,26.00
2017-09-04T11:04:51.219Z,25.90
2017-09-04T11:07:17.705Z,26.20
2017-09-04T11:09:44.189Z,26.30
2017-09-04T11:12:10.675Z,26.30
2017-09-04T11:14:37.218Z,26.20
2017-09-04T11:17:03.727Z,26.40
2017-09-04T11:19:30.201Z,26.20
2017-09-04T11:21:56.719Z,26.30
2017-09-04T11:24:23.345Z,26.30
2017-09-04T11:26:49.877Z,26.40
2017-09-04T11:29:16.426Z,26.50
2017-09-04T11:31:42.962Z,26.40
2017-09-04T11:34:09.438Z,26.60
2017-09-04T11:36:35.975Z,26.70
2017-09-04T11:39:02.532Z,26.60
2017-09-04T11:41:29.003Z,26.90
2017-09-04T11:43:55.554Z,26.70
2017-09-04T11:46:22.062Z,25.70
2017-09-04T11:48:48.522Z,26.00
2017-09-04T11:51:14.943Z,26.20
2017-09-04T11:53:41.481Z,26.00
2017-09-04T11:56:07.996Z,25.90
2017-09-04T11:58:34.575Z,25.70
2017-09-04T12:01:01.090Z,25.60
2017-09-04T12:03:27.782Z,25.50
2017-09-04T12:05:54.270Z,25.60
2017-09-04T12:08:20.746Z,26.00
2017-09-04T12:10:47.362Z,25.80
2017-09-04T12:13:13.866Z,25.90
2017-09-04T12:15:40.419Z,26.10
2017-09-04T12:18:06.984Z,26.20
2017-09-04T12:20:33.603Z,26.90
2017-09-04T12:23:00.131Z,26.60
2017-09-04T12:25:26.640Z,26.30
2017-09-04T12:27:53.111Z,26.00
2017-09-04T12:30:19.666Z,25.20
2017-09-04T12:32:46.223Z,25.40
2017-09-04T12:35:12.831Z,25.60
2017-09-04T12:37:39.323Z,25.80
2017-09-04T12:40:05.790Z,25.70
2017-09-04T12:42:32.304Z,26.00
2017-09-04T12:44:58.945Z,26.00
2017-09-04T12:47:25.480Z,26.00
2017-09-04T12:49:51.914Z,25.60
2017-09-04T12:52:18.445Z,25.20
2017-09-04T12:54:44.946Z,25.40
2017-09-04T12:57:11.459Z,25.80
2017-09-04T12:59:37.977Z,25.00
2017-09-04T13:02:04.588Z,25.50
2017-09-04T13:04:31.072Z,25.80
2017-09-04T13:06:57.568Z,25.80
2017-09-04T13:09:24.056Z,25.80
2017-09-04T13:11:52.583Z,25.80
2017-09-04T13:14:23.854Z,25.50
2017-09-04T13:16:56.499Z,24.60
2017-09-04T13:22:35.866Z,24.90
2017-09-04T13:25:08.415Z,25.10
2017-09-04T13:27:41.032Z,24.90
2017-09-04T13:30:13.508Z,24.80
2017-09-04T13:32:52.008Z,25.00
2017-09-04T13:35:24.446Z,25.20
2017-09-04T13:40:54.893Z,24.70
2017-09-04T13:43:27.416Z,24.50
2017-09-04T13:46:00.246Z,24.20
2017-09-04T13:48:27.631Z,24.10
2017-09-04T13:51:00.198Z,23.70
2017-09-04T14:06:56.045Z,24.90
2017-09-04T14:09:43.528Z,25.00
2017-09-04T14:12:22.894Z,25.20
2017-09-04T14:28:11.830Z,25.20
2017-09-04T14:30:38.158Z,25.20
2017-09-04T14:33:04.455Z,25.40
2017-09-04T14:35:30.880Z,25.20
2017-09-04T14:37:57.204Z,25.30
2017-09-04T14:53:42.804Z,24.90
2017-09-04T14:56:09.303Z,24.80
2017-09-04T14:58:35.913Z,24.70
2017-09-04T15:01:02.435Z,24.70
2017-09-04T15:03:29.058Z,24.60
2017-09-04T15:05:55.602Z,24.30
2017-09-04T15:08:22.116Z,24.40
2017-09-04T15:10:48.602Z,24.50
2017-09-04T15:13:15.096Z,24.50
2017-09-04T15:15:41.610Z,24.10
2017-09-04T15:18:08.115Z,23.90
2017-09-04T15:20:34.652Z,24.00
2017-09-04T15:23:01.178Z,24.00
2017-09-04T15:25:27.693Z,24.10
2017-09-04T15:27:54.207Z,24.20
2017-09-04T15:30:20.743Z,23.90
2017-09-04T15:32:47.280Z,23.90
2017-09-04T15:35:13.881Z,23.90
2017-09-04T15:37:40.358Z,23.90
2017-09-04T15:40:07.000Z,23.90
2017-09-04T15:42:33.490Z,23.70
2017-09-04T15:45:00.174Z,23.60
2017-09-04T15:47:26.720Z,23.50
2017-09-04T15:49:53.211Z,23.50
2017-09-04T15:52:19.705Z,23.30
2017-09-04T15:54:46.283Z,23.20
2017-09-04T15:57:12.789Z,23.10
2017-09-04T15:59:39.366Z,23.10
2017-09-04T16:02:06.026Z,23.20
2017-09-04T16:04:32.515Z,23.20
2017-09-04T16:07:09.961Z,22.40
2017-09-04T16:09:36.449Z,22.80
2017-09-04T16:12:06.086Z,22.90
2017-09-04T16:14:32.596Z,22.90
2017-09-04T16:30:28.917Z,22.60
2017-09-04T16:33:01.444Z,22.50
2017-09-04T16:35:31.791Z,22.70
2017-09-04T16:38:01.348Z,22.70
2017-09-04T16:40:27.870Z,22.70
2017-09-04T16:42:54.374Z,22.70
2017-09-04T16:45:21.910Z,22.70
2017-09-04T16:47:49.228Z,22.80
2017-09-04T16:50:29.583Z,22.90
2017-09-04T16:52:59.931Z,22.90
2017-09-04T16:55:27.431Z,22.70
2017-09-04T16:57:56.088Z,22.70
2017-09-04T17:00:22.710Z,22.70
2017-09-04T17:02:49.242Z,22.60
2017-09-04T17:05:15.778Z,22.60
2017-09-04T17:07:42.319Z,22.60
2017-09-04T17:10:11.099Z,22.60
2017-09-04T17:12:39.520Z,22.50
2017-09-04T17:15:06.298Z,22.50
2017-09-04T17:17:44.391Z,22.40
2017-09-04T17:20:14.798Z,22.40
2017-09-04T17:22:42.443Z,22.40
2017-09-04T17:25:14.179Z,22.40
2017-09-04T17:27:40.758Z,21.80
2017-09-04T17:30:07.260Z,22.30
2017-09-04T17:32:33.789Z,22.30
2017-09-04T17:35:00.423Z,22.20
2017-09-04T17:37:26.967Z,22.10
2017-09-04T17:39:53.505Z,22.00
2017-09-04T17:42:20.031Z,21.80
2017-09-04T17:44:49.390Z,21.90
2017-09-04T17:47:16.241Z,21.80
2017-09-04T17:49:42.851Z,21.80
2017-09-04T17:52:09.356Z,21.80
2017-09-04T17:54:35.893Z,21.60
2017-09-04T17:57:02.417Z,21.70
2017-09-04T17:59:28.967Z,21.70
2017-09-04T18:01:55.476Z,21.60
2017-09-04T18:04:22.092Z,21.60
2017-09-04T18:06:48.664Z,21.60
2017-09-04T18:09:15.199Z,21.50
2017-09-04T18:11:41.755Z,21.40
2017-09-04T18:14:08.339Z,21.40
2017-09-04T18:16:34.929Z,21.20
2017-09-04T18:19:01.516Z,21.10
2017-09-04T18:21:28.191Z,21.10
2017-09-04T18:23:54.714Z,20.90
2017-09-04T18:26:21.263Z,20.80
2017-09-04T18:28:48.076Z,20.70
2017-09-04T18:31:14.790Z,20.60
2017-09-04T18:33:41.309Z,20.60
2017-09-04T18:36:07.826Z,20.60
2017-09-04T18:38:35.296Z,20.60
2017-09-04T18:41:02.061Z,20.50
2017-09-04T18:43:28.643Z,20.40
2017-09-04T18:45:55.143Z,20.50
2017-09-04T18:48:21.705Z,20.30
2017-09-04T18:50:48.197Z,20.30
2017-09-04T18:53:14.732Z,20.20
2017-09-04T18:55:41.306Z,20.20
2017-09-04T18:58:07.831Z,20.30
2017-09-04T19:00:34.350Z,20.20
2017-09-04T19:03:01.017Z,20.00
2017-09-04T19:05:27.627Z,19.80
2017-09-04T19:07:54.260Z,20.00
2017-09-04T19:10:20.860Z,19.90
2017-09-04T19:12:47.362Z,20.00
2017-09-04T19:15:14.065Z,19.90
2017-09-04T19:17:40.675Z,20.00
2017-09-04T19:20:07.171Z,20.00
2017-09-04T19:22:33.777Z,20.00
2017-09-04T19:25:00.510Z,19.80
2017-09-04T19:27:27.163Z,19.80
2017-09-04T19:29:53.681Z,19.80
2017-09-04T19:32:20.320Z,19.90
2017-09-04T19:34:46.846Z,19.90
2017-09-04T19:37:13.337Z,19.80
2017-09-04T19:39:40.119Z,19.80
2017-09-04T19:42:06.624Z,19.80
2017-09-04T19:44:33.170Z,19.80
2017-09-04T19:46:59.730Z,19.70
2017-09-04T19:49:26.265Z,19.60
2017-09-04T19:51:52.768Z,19.30
2017-09-04T19:54:19.290Z,19.10
2017-09-04T19:56:45.898Z,18.60
2017-09-04T19:59:12.377Z,18.30
2017-09-04T20:01:45.876Z,18.00
2017-09-04T20:04:12.382Z,17.90
2017-09-04T20:06:38.914Z,18.30
2017-09-04T20:09:05.469Z,18.40
2017-09-04T20:11:32.067Z,18.10
2017-09-04T20:13:58.669Z,18.20
2017-09-04T20:16:25.180Z,18.10
2017-09-04T20:18:51.687Z,18.20
2017-09-04T20:21:18.277Z,18.40
2017-09-04T20:23:44.816Z,18.30
2017-09-04T20:26:11.320Z,17.90
2017-09-04T20:28:37.852Z,18.40
2017-09-04T20:31:04.367Z,18.30
2017-09-04T20:33:30.935Z,18.20
2017-09-04T20:35:57.442Z,18.40
2017-09-04T20:38:25.050Z,18.40
2017-09-04T20:40:51.546Z,18.40
2017-09-04T20:43:18.102Z,18.40
2017-09-04T20:45:44.623Z,18.50
2017-09-04T20:48:11.122Z,18.50
2017-09-04T20:50:37.652Z,18.40
2017-09-04T20:53:04.150Z,18.50
2017-09-04T20:55:30.747Z,18.40
2017-09-04T20:57:57.255Z,18.50
2017-09-04T21:00:23.829Z,18.30
2017-09-04T21:02:50.375Z,18.10
2017-09-04T21:05:16.919Z,18.30
2017-09-04T21:07:43.765Z,18.40
2017-09-04T21:10:10.663Z,18.30
2017-09-04T21:12:37.142Z,18.30
2017-09-04T21:15:03.683Z,18.40
2017-09-04T21:17:30.297Z,18.40
2017-09-04T21:19:56.806Z,18.40
2017-09-04T21:22:23.327Z,18.40
2017-09-04T21:24:49.898Z,18.30
2017-09-04T21:27:16.404Z,18.30
2017-09-04T21:29:42.950Z,18.20
2017-09-04T21:32:09.629Z,18.00
2017-09-04T21:34:36.227Z,18.00
2017-09-04T21:37:02.737Z,18.10
2017-09-04T21:39:29.253Z,18.20
2017-09-04T21:41:55.752Z,18.40
2017-09-04T21:44:22.246Z,18.20
2017-09-04T21:46:48.761Z,18.20
2017-09-04T21:49:15.259Z,18.20
2017-09-04T21:51:41.794Z,18.10
2017-09-04T21:54:08.257Z,18.10
2017-09-04T21:56:34.712Z,18.10
2017-09-04T21:59:01.227Z,18.10
2017-09-04T22:01:27.731Z,17.90
2017-09-04T22:03:54.294Z,18.10
2017-09-04T22:06:20.839Z,18.10
2017-09-04T22:08:47.379Z,18.10
2017-09-04T22:11:13.959Z,18.10
2017-09-04T22:13:40.446Z,18.10
2017-09-04T22:16:06.980Z,17.90
2017-09-04T22:18:33.861Z,18.00
2017-09-04T22:21:00.370Z,17.90
2017-09-04T22:23:27.682Z,17.90
2017-09-04T22:25:54.299Z,17.90
2017-09-04T22:28:20.805Z,17.90
2017-09-04T22:30:47.350Z,17.90
2017-09-04T22:33:13.970Z,17.90
2017-09-04T22:35:40.498Z,18.00
2017-09-04T22:38:07.000Z,17.90
2017-09-04T22:40:33.533Z,17.90
2017-09-04T22:43:00.008Z,18.00
2017-09-04T22:45:26.442Z,17.80
2017-09-04T22:47:52.922Z,17.70
2017-09-04T22:50:19.390Z,17.70
2017-09-04T22:52:45.890Z,17.90
2017-09-04T22:55:12.354Z,17.90
2017-09-04T22:57:38.877Z,18.00
2017-09-04T23:00:05.337Z,18.10
2017-09-04T23:02:31.833Z,18.20
2017-09-04T23:04:58.297Z,17.90
2017-09-04T23:07:24.787Z,18.00
2017-09-04T23:09:51.241Z,18.10
2017-09-04T23:12:17.721Z,18.20
2017-09-04T23:14:44.302Z,18.20
2017-09-04T23:17:10.794Z,18.30
2017-09-04T23:19:37.285Z,18.30
2017-09-04T23:22:03.773Z,18.30
2017-09-04T23:24:30.266Z,18.30
2017-09-04T23:26:56.718Z,18.30
2017-09-04T23:29:23.198Z,18.20
2017-09-04T23:31:49.729Z,18.40
2017-09-04T23:34:16.251Z,18.40
2017-09-04T23:36:44.396Z,18.40
2017-09-04T23:39:10.873Z,18.50
2017-09-04T23:41:37.565Z,18.30
2017-09-04T23:44:04.180Z,18.60
2017-09-04T23:46:30.679Z,18.30
2017-09-04T23:48:57.197Z,18.30
2017-09-04T23:51:23.720Z,18.20
2017-09-04T23:53:50.232Z,18.10
2017-09-04T23:56:17.567Z,18.10
2017-09-04T23:58:44.628Z,18.00
